sensor_id;sensor_type;location;lat;lon;timestamp;temperature;humidity
51035;DHT22;37062;52.546;13.230;2022-08-20T00:00:21;22.30;99.90
51035;DHT22;37062;52.546;13.230;2022-08-20T00:02:52;22.30;99.90
51035;DHT22;37062;52.546;13.230;2022-08-20T00:05:22;22.30;99.90
51035;DHT22;37062;52.546;13.230;2022-08-20T00:07:50;22.30;99.90
51035;DHT22;37062;52.546;13.230;2022-08-20T00:10:19;22.30;99.90
51035;DHT22;37062;52.546;13.230;2022-08-20T00:12:48;22.20;99.90
51035;DHT22;37062;52.546;13.230;2022-08-20T00:15:19;22.30;99.90
51035;DHT22;37062;52.546;13.230;2022-08-20T00:17:48;22.20;99.90
51035;DHT22;37062;52.546;13.230;2022-08-20T00:20:19;22.20;99.90
51035;DHT22;37062;52.546;13.230;2022-08-20T00:22:47;22.20;99.90
51035;DHT22;37062;52.546;13.230;2022-08-20T00:25:15;22.20;99.90
51035;DHT22;37062;52.546;13.230;2022-08-20T00:27:43;22.20;99.90
51035;DHT22;37062;52.546;13.230;2022-08-20T00:30:13;22.20;99.90
51035;DHT22;37062;52.546;13.230;2022-08-20T00:32:44;22.20;99.90
51035;DHT22;37062;52.546;13.230;2022-08-20T00:35:14;22.20;99.90
51035;DHT22;37062;52.546;13.230;2022-08-20T00:37:42;22.20;99.90
51035;DHT22;37062;52.546;13.230;2022-08-20T00:40:15;22.20;99.90
51035;DHT22;37062;52.546;13.230;2022-08-20T00:42:53;22.20;99.90
51035;DHT22;37062;52.546;13.230;2022-08-20T00:45:23;22.20;99.90
51035;DHT22;37062;52.546;13.230;2022-08-20T00:47:51;22.20;99.90
51035;DHT22;37062;52.546;13.230;2022-08-20T00:50:23;22.20;99.90
51035;DHT22;37062;52.546;13.230;2022-08-20T00:52:52;22.20;99.90
51035;DHT22;37062;52.546;13.230;2022-08-20T00:55:22;22.20;99.90
51035;DHT22;37062;52.546;13.230;2022-08-20T00:57:53;22.20;99.90
51035;DHT22;37062;52.546;13.230;2022-08-20T01:00:26;22.20;99.90
51035;DHT22;37062;52.546;13.230;2022-08-20T01:02:56;22.20;99.90
51035;DHT22;37062;52.546;13.230;2022-08-20T01:05:24;22.20;99.90
51035;DHT22;37062;52.546;13.230;2022-08-20T01:07:52;22.20;99.90
51035;DHT22;37062;52.546;13.230;2022-08-20T01:10:24;22.20;99.90
51035;DHT22;37062;52.546;13.230;2022-08-20T01:12:55;22.20;99.90
51035;DHT22;37062;52.546;13.230;2022-08-20T01:15:25;22.20;99.90
51035;DHT22;37062;52.546;13.230;2022-08-20T01:17:56;22.20;99.90
51035;DHT22;37062;52.546;13.230;2022-08-20T01:20:27;22.10;99.90
51035;DHT22;37062;52.546;13.230;2022-08-20T01:22:59;22.10;99.90
51035;DHT22;37062;52.546;13.230;2022-08-20T01:25:51;22.00;99.90
51035;DHT22;37062;52.546;13.230;2022-08-20T01:28:22;22.00;99.90
51035;DHT22;37062;52.546;13.230;2022-08-20T01:30:51;21.90;99.90
51035;DHT22;37062;52.546;13.230;2022-08-20T01:33:21;22.00;99.90
51035;DHT22;37062;52.546;13.230;2022-08-20T01:35:50;21.90;99.90
51035;DHT22;37062;52.546;13.230;2022-08-20T01:38:18;21.90;99.90
51035;DHT22;37062;52.546;13.230;2022-08-20T01:41:24;21.80;99.90
51035;DHT22;37062;52.546;13.230;2022-08-20T01:43:56;21.80;99.90
51035;DHT22;37062;52.546;13.230;2022-08-20T01:46:26;21.80;99.90
51035;DHT22;37062;52.546;13.230;2022-08-20T01:48:55;21.70;99.90
51035;DHT22;37062;52.546;13.230;2022-08-20T01:51:26;21.80;99.90
51035;DHT22;37062;52.546;13.230;2022-08-20T01:53:56;21.70;99.90
51035;DHT22;37062;52.546;13.230;2022-08-20T01:56:28;21.70;99.90
51035;DHT22;37062;52.546;13.230;2022-08-20T01:58:58;21.70;99.90
51035;DHT22;37062;52.546;13.230;2022-08-20T02:01:29;21.70;99.90
51035;DHT22;37062;52.546;13.230;2022-08-20T02:03:59;21.70;99.90
51035;DHT22;37062;52.546;13.230;2022-08-20T02:06:29;21.70;99.90
51035;DHT22;37062;52.546;13.230;2022-08-20T02:08:58;21.70;99.90
51035;DHT22;37062;52.546;13.230;2022-08-20T02:11:29;21.70;99.90
51035;DHT22;37062;52.546;13.230;2022-08-20T02:13:57;21.70;99.90
51035;DHT22;37062;52.546;13.230;2022-08-20T02:16:41;21.70;99.90
51035;DHT22;37062;52.546;13.230;2022-08-20T02:19:10;21.70;99.90
51035;DHT22;37062;52.546;13.230;2022-08-20T02:21:43;21.70;99.90
51035;DHT22;37062;52.546;13.230;2022-08-20T02:24:12;21.70;99.90
51035;DHT22;37062;52.546;13.230;2022-08-20T02:26:42;21.70;99.90
51035;DHT22;37062;52.546;13.230;2022-08-20T02:29:11;21.70;99.90
51035;DHT22;37062;52.546;13.230;2022-08-20T02:31:40;21.60;99.90
51035;DHT22;37062;52.546;13.230;2022-08-20T02:34:10;21.70;99.90
51035;DHT22;37062;52.546;13.230;2022-08-20T02:36:39;21.60;99.90
51035;DHT22;37062;52.546;13.230;2022-08-20T02:39:09;21.60;99.90
51035;DHT22;37062;52.546;13.230;2022-08-20T02:41:37;21.70;99.90
51035;DHT22;37062;52.546;13.230;2022-08-20T02:44:07;21.60;99.90
51035;DHT22;37062;52.546;13.230;2022-08-20T02:46:35;21.60;99.90
51035;DHT22;37062;52.546;13.230;2022-08-20T02:49:03;21.60;99.90
51035;DHT22;37062;52.546;13.230;2022-08-20T02:51:31;21.60;99.90
51035;DHT22;37062;52.546;13.230;2022-08-20T02:53:58;21.70;99.90
51035;DHT22;37062;52.546;13.230;2022-08-20T02:56:26;21.70;99.90
51035;DHT22;37062;52.546;13.230;2022-08-20T02:58:54;21.70;99.90
51035;DHT22;37062;52.546;13.230;2022-08-20T03:01:22;21.70;99.90
51035;DHT22;37062;52.546;13.230;2022-08-20T03:03:50;21.70;99.90
51035;DHT22;37062;52.546;13.230;2022-08-20T03:06:18;21.70;99.90
51035;DHT22;37062;52.546;13.230;2022-08-20T03:08:47;21.70;99.90
51035;DHT22;37062;52.546;13.230;2022-08-20T03:11:14;21.70;99.90
51035;DHT22;37062;52.546;13.230;2022-08-20T03:13:42;21.70;99.90
51035;DHT22;37062;52.546;13.230;2022-08-20T03:16:10;21.70;99.90
51035;DHT22;37062;52.546;13.230;2022-08-20T03:18:42;21.70;99.90
51035;DHT22;37062;52.546;13.230;2022-08-20T03:21:11;21.70;99.90
51035;DHT22;37062;52.546;13.230;2022-08-20T03:23:39;21.70;99.90
51035;DHT22;37062;52.546;13.230;2022-08-20T03:26:10;21.60;99.90
51035;DHT22;37062;52.546;13.230;2022-08-20T03:28:38;21.70;99.90
51035;DHT22;37062;52.546;13.230;2022-08-20T03:31:07;21.60;99.90
51035;DHT22;37062;52.546;13.230;2022-08-20T03:33:35;21.60;99.90
51035;DHT22;37062;52.546;13.230;2022-08-20T03:36:09;21.60;99.90
51035;DHT22;37062;52.546;13.230;2022-08-20T03:38:36;21.60;99.90
51035;DHT22;37062;52.546;13.230;2022-08-20T03:41:07;21.60;99.90
51035;DHT22;37062;52.546;13.230;2022-08-20T03:43:35;21.60;99.90
51035;DHT22;37062;52.546;13.230;2022-08-20T03:46:05;21.60;99.90
51035;DHT22;37062;52.546;13.230;2022-08-20T03:48:33;21.60;99.90
51035;DHT22;37062;52.546;13.230;2022-08-20T03:51:00;21.70;99.90
51035;DHT22;37062;52.546;13.230;2022-08-20T03:53:29;21.70;99.90
51035;DHT22;37062;52.546;13.230;2022-08-20T03:55:58;21.70;99.90
51035;DHT22;37062;52.546;13.230;2022-08-20T03:58:27;21.70;99.90
51035;DHT22;37062;52.546;13.230;2022-08-20T04:00:55;21.70;99.90
51035;DHT22;37062;52.546;13.230;2022-08-20T04:03:23;21.60;99.90
51035;DHT22;37062;52.546;13.230;2022-08-20T04:05:52;21.60;99.90
51035;DHT22;37062;52.546;13.230;2022-08-20T04:08:22;21.60;99.90
51035;DHT22;37062;52.546;13.230;2022-08-20T04:10:53;21.60;99.90
51035;DHT22;37062;52.546;13.230;2022-08-20T04:13:23;21.60;99.90
51035;DHT22;37062;52.546;13.230;2022-08-20T04:15:52;21.60;99.90
51035;DHT22;37062;52.546;13.230;2022-08-20T04:18:21;21.60;99.90
51035;DHT22;37062;52.546;13.230;2022-08-20T04:20:49;21.60;99.90
51035;DHT22;37062;52.546;13.230;2022-08-20T04:23:17;21.60;99.90
51035;DHT22;37062;52.546;13.230;2022-08-20T04:25:46;21.70;99.90
51035;DHT22;37062;52.546;13.230;2022-08-20T04:28:20;21.70;99.90
51035;DHT22;37062;52.546;13.230;2022-08-20T04:30:52;21.70;99.90
51035;DHT22;37062;52.546;13.230;2022-08-20T04:33:19;21.70;99.90
51035;DHT22;37062;52.546;13.230;2022-08-20T04:35:47;21.70;99.90
51035;DHT22;37062;52.546;13.230;2022-08-20T04:38:17;21.70;99.90
51035;DHT22;37062;52.546;13.230;2022-08-20T04:40:44;21.70;99.90
51035;DHT22;37062;52.546;13.230;2022-08-20T04:43:26;21.80;99.90
51035;DHT22;37062;52.546;13.230;2022-08-20T04:45:56;21.80;99.90
51035;DHT22;37062;52.546;13.230;2022-08-20T04:48:25;21.70;99.90
51035;DHT22;37062;52.546;13.230;2022-08-20T04:50:54;21.70;99.90
51035;DHT22;37062;52.546;13.230;2022-08-20T04:53:25;21.70;99.90
51035;DHT22;37062;52.546;13.230;2022-08-20T04:55:56;21.70;99.90
51035;DHT22;37062;52.546;13.230;2022-08-20T04:58:28;21.70;99.90
51035;DHT22;37062;52.546;13.230;2022-08-20T05:00:57;21.70;99.90
51035;DHT22;37062;52.546;13.230;2022-08-20T05:03:25;21.70;99.90
51035;DHT22;37062;52.546;13.230;2022-08-20T05:05:53;21.80;99.90
51035;DHT22;37062;52.546;13.230;2022-08-20T05:08:22;21.80;99.90
51035;DHT22;37062;52.546;13.230;2022-08-20T05:10:54;21.80;99.90
51035;DHT22;37062;52.546;13.230;2022-08-20T05:13:23;21.80;99.90
51035;DHT22;37062;52.546;13.230;2022-08-20T05:15:53;21.80;99.90
51035;DHT22;37062;52.546;13.230;2022-08-20T05:18:23;21.80;99.90
51035;DHT22;37062;52.546;13.230;2022-08-20T05:20:52;21.70;99.90
51035;DHT22;37062;52.546;13.230;2022-08-20T05:23:22;21.70;99.90
51035;DHT22;37062;52.546;13.230;2022-08-20T05:25:49;21.80;99.90
51035;DHT22;37062;52.546;13.230;2022-08-20T05:28:19;21.70;99.90
51035;DHT22;37062;52.546;13.230;2022-08-20T05:30:48;21.70;99.90
51035;DHT22;37062;52.546;13.230;2022-08-20T05:33:20;21.80;99.90
51035;DHT22;37062;52.546;13.230;2022-08-20T05:35:49;21.80;99.90
51035;DHT22;37062;52.546;13.230;2022-08-20T05:38:20;21.80;99.90
51035;DHT22;37062;52.546;13.230;2022-08-20T05:40:49;21.90;99.90
51035;DHT22;37062;52.546;13.230;2022-08-20T05:43:17;21.90;99.90
51035;DHT22;37062;52.546;13.230;2022-08-20T05:45:47;21.90;99.90
51035;DHT22;37062;52.546;13.230;2022-08-20T05:48:21;21.90;99.90
51035;DHT22;37062;52.546;13.230;2022-08-20T05:50:51;21.90;99.90
51035;DHT22;37062;52.546;13.230;2022-08-20T05:53:20;21.90;99.90
51035;DHT22;37062;52.546;13.230;2022-08-20T05:55:48;21.90;99.90
51035;DHT22;37062;52.546;13.230;2022-08-20T05:58:20;21.90;99.90
51035;DHT22;37062;52.546;13.230;2022-08-20T06:00:49;22.00;99.90
51035;DHT22;37062;52.546;13.230;2022-08-20T06:03:19;22.00;99.90
51035;DHT22;37062;52.546;13.230;2022-08-20T06:06:07;22.00;99.90
51035;DHT22;37062;52.546;13.230;2022-08-20T06:08:35;22.00;99.90
51035;DHT22;37062;52.546;13.230;2022-08-20T06:11:04;22.00;99.90
51035;DHT22;37062;52.546;13.230;2022-08-20T06:13:33;22.00;99.90
51035;DHT22;37062;52.546;13.230;2022-08-20T06:16:01;22.00;99.90
51035;DHT22;37062;52.546;13.230;2022-08-20T06:18:33;21.90;99.90
51035;DHT22;37062;52.546;13.230;2022-08-20T06:21:01;22.00;99.90
51035;DHT22;37062;52.546;13.230;2022-08-20T06:23:30;22.00;99.90
51035;DHT22;37062;52.546;13.230;2022-08-20T06:25:57;22.00;99.90
51035;DHT22;37062;52.546;13.230;2022-08-20T06:28:25;22.00;99.90
51035;DHT22;37062;52.546;13.230;2022-08-20T06:30:52;22.10;99.90
51035;DHT22;37062;52.546;13.230;2022-08-20T06:33:20;22.10;99.90
51035;DHT22;37062;52.546;13.230;2022-08-20T06:35:49;22.20;99.90
51035;DHT22;37062;52.546;13.230;2022-08-20T06:38:17;22.20;99.90
51035;DHT22;37062;52.546;13.230;2022-08-20T06:40:45;22.20;99.90
51035;DHT22;37062;52.546;13.230;2022-08-20T06:43:13;22.20;99.90
51035;DHT22;37062;52.546;13.230;2022-08-20T06:45:40;22.20;99.90
51035;DHT22;37062;52.546;13.230;2022-08-20T06:48:10;22.30;99.90
51035;DHT22;37062;52.546;13.230;2022-08-20T06:50:40;22.30;99.90
51035;DHT22;37062;52.546;13.230;2022-08-20T06:53:11;22.20;99.90
51035;DHT22;37062;52.546;13.230;2022-08-20T06:55:40;22.20;99.90
51035;DHT22;37062;52.546;13.230;2022-08-20T06:58:10;22.30;99.90
51035;DHT22;37062;52.546;13.230;2022-08-20T07:00:40;22.30;99.90
51035;DHT22;37062;52.546;13.230;2022-08-20T07:03:09;22.30;99.90
51035;DHT22;37062;52.546;13.230;2022-08-20T07:05:41;22.30;99.90
51035;DHT22;37062;52.546;13.230;2022-08-20T07:08:11;22.30;99.90
51035;DHT22;37062;52.546;13.230;2022-08-20T07:10:40;22.30;99.90
51035;DHT22;37062;52.546;13.230;2022-08-20T07:13:08;22.30;99.90
51035;DHT22;37062;52.546;13.230;2022-08-20T07:15:35;22.30;99.90
51035;DHT22;37062;52.546;13.230;2022-08-20T07:18:05;22.30;99.90
51035;DHT22;37062;52.546;13.230;2022-08-20T07:20:35;22.30;99.90
51035;DHT22;37062;52.546;13.230;2022-08-20T07:23:04;22.30;99.90
51035;DHT22;37062;52.546;13.230;2022-08-20T07:25:34;22.30;99.90
51035;DHT22;37062;52.546;13.230;2022-08-20T07:28:04;22.30;99.90
51035;DHT22;37062;52.546;13.230;2022-08-20T07:30:32;22.40;99.90
51035;DHT22;37062;52.546;13.230;2022-08-20T07:33:17;22.40;99.90
51035;DHT22;37062;52.546;13.230;2022-08-20T07:35:45;22.50;99.90
51035;DHT22;37062;52.546;13.230;2022-08-20T07:38:16;22.50;99.90
51035;DHT22;37062;52.546;13.230;2022-08-20T07:40:51;22.50;99.90
51035;DHT22;37062;52.546;13.230;2022-08-20T07:43:19;22.60;99.90
51035;DHT22;37062;52.546;13.230;2022-08-20T07:45:48;22.60;99.90
51035;DHT22;37062;52.546;13.230;2022-08-20T07:48:16;22.60;99.90
51035;DHT22;37062;52.546;13.230;2022-08-20T07:50:43;22.60;99.90
51035;DHT22;37062;52.546;13.230;2022-08-20T07:53:15;22.70;99.90
51035;DHT22;37062;52.546;13.230;2022-08-20T07:55:42;22.70;99.90
51035;DHT22;37062;52.546;13.230;2022-08-20T07:58:13;22.80;99.90
51035;DHT22;37062;52.546;13.230;2022-08-20T08:00:42;22.80;99.90
51035;DHT22;37062;52.546;13.230;2022-08-20T08:03:09;22.80;99.90
51035;DHT22;37062;52.546;13.230;2022-08-20T08:05:39;22.80;99.90
51035;DHT22;37062;52.546;13.230;2022-08-20T08:08:11;22.80;99.90
51035;DHT22;37062;52.546;13.230;2022-08-20T08:10:40;22.90;99.90
51035;DHT22;37062;52.546;13.230;2022-08-20T08:13:09;22.90;99.90
51035;DHT22;37062;52.546;13.230;2022-08-20T08:15:43;23.00;99.90
51035;DHT22;37062;52.546;13.230;2022-08-20T08:18:15;23.00;99.90
51035;DHT22;37062;52.546;13.230;2022-08-20T08:20:47;23.00;99.90
51035;DHT22;37062;52.546;13.230;2022-08-20T08:23:16;23.00;99.90
51035;DHT22;37062;52.546;13.230;2022-08-20T08:25:43;23.10;99.90
51035;DHT22;37062;52.546;13.230;2022-08-20T08:28:12;23.10;99.90
51035;DHT22;37062;52.546;13.230;2022-08-20T08:30:41;23.20;99.90
51035;DHT22;37062;52.546;13.230;2022-08-20T08:33:17;23.20;99.90
51035;DHT22;37062;52.546;13.230;2022-08-20T08:35:54;23.20;99.90
51035;DHT22;37062;52.546;13.230;2022-08-20T08:38:23;23.30;99.90
51035;DHT22;37062;52.546;13.230;2022-08-20T08:40:52;23.30;99.90
51035;DHT22;37062;52.546;13.230;2022-08-20T08:43:23;23.30;99.90
51035;DHT22;37062;52.546;13.230;2022-08-20T08:45:59;23.40;99.90
51035;DHT22;37062;52.546;13.230;2022-08-20T08:48:32;23.40;99.90
51035;DHT22;37062;52.546;13.230;2022-08-20T08:51:01;23.40;99.90
51035;DHT22;37062;52.546;13.230;2022-08-20T08:53:40;23.40;99.90
51035;DHT22;37062;52.546;13.230;2022-08-20T08:56:09;23.30;99.90
51035;DHT22;37062;52.546;13.230;2022-08-20T08:58:36;23.30;99.90
51035;DHT22;37062;52.546;13.230;2022-08-20T09:01:10;23.20;99.90
51035;DHT22;37062;52.546;13.230;2022-08-20T09:03:40;23.30;99.90
51035;DHT22;37062;52.546;13.230;2022-08-20T09:06:13;23.30;99.90
51035;DHT22;37062;52.546;13.230;2022-08-20T09:08:46;23.30;99.90
51035;DHT22;37062;52.546;13.230;2022-08-20T09:11:16;23.40;99.90
51035;DHT22;37062;52.546;13.230;2022-08-20T09:13:44;23.40;99.90
51035;DHT22;37062;52.546;13.230;2022-08-20T09:16:13;23.50;99.90
51035;DHT22;37062;52.546;13.230;2022-08-20T09:18:41;23.50;99.90
51035;DHT22;37062;52.546;13.230;2022-08-20T09:21:08;23.50;99.90
51035;DHT22;37062;52.546;13.230;2022-08-20T09:23:36;23.60;99.90
51035;DHT22;37062;52.546;13.230;2022-08-20T09:26:07;23.60;99.90
51035;DHT22;37062;52.546;13.230;2022-08-20T09:28:36;23.70;99.90
51035;DHT22;37062;52.546;13.230;2022-08-20T09:31:06;23.70;99.90
51035;DHT22;37062;52.546;13.230;2022-08-20T09:33:35;23.80;99.90
51035;DHT22;37062;52.546;13.230;2022-08-20T09:36:06;23.80;99.90
51035;DHT22;37062;52.546;13.230;2022-08-20T09:38:34;24.00;99.90
51035;DHT22;37062;52.546;13.230;2022-08-20T09:41:04;24.00;99.90
51035;DHT22;37062;52.546;13.230;2022-08-20T09:43:31;24.10;99.90
51035;DHT22;37062;52.546;13.230;2022-08-20T09:45:59;24.10;99.90
51035;DHT22;37062;52.546;13.230;2022-08-20T09:48:26;24.00;99.90
51035;DHT22;37062;52.546;13.230;2022-08-20T09:50:55;24.00;99.90
51035;DHT22;37062;52.546;13.230;2022-08-20T09:53:23;24.10;99.90
51035;DHT22;37062;52.546;13.230;2022-08-20T09:55:52;24.20;99.90
51035;DHT22;37062;52.546;13.230;2022-08-20T09:58:23;24.40;99.90
51035;DHT22;37062;52.546;13.230;2022-08-20T10:00:51;24.50;99.90
51035;DHT22;37062;52.546;13.230;2022-08-20T10:03:19;24.60;99.90
51035;DHT22;37062;52.546;13.230;2022-08-20T10:05:47;24.60;99.90
51035;DHT22;37062;52.546;13.230;2022-08-20T10:08:16;24.60;99.90
51035;DHT22;37062;52.546;13.230;2022-08-20T10:10:43;24.70;99.90
51035;DHT22;37062;52.546;13.230;2022-08-20T10:13:11;24.80;99.90
51035;DHT22;37062;52.546;13.230;2022-08-20T10:15:38;24.80;99.90
51035;DHT22;37062;52.546;13.230;2022-08-20T10:18:06;24.80;99.90
51035;DHT22;37062;52.546;13.230;2022-08-20T10:20:33;25.00;99.90
51035;DHT22;37062;52.546;13.230;2022-08-20T10:23:02;25.10;99.90
51035;DHT22;37062;52.546;13.230;2022-08-20T10:25:31;25.10;99.90
51035;DHT22;37062;52.546;13.230;2022-08-20T10:27:59;25.30;99.90
51035;DHT22;37062;52.546;13.230;2022-08-20T10:30:27;25.30;99.90
51035;DHT22;37062;52.546;13.230;2022-08-20T10:32:54;25.30;99.90
51035;DHT22;37062;52.546;13.230;2022-08-20T10:35:22;25.40;99.90
51035;DHT22;37062;52.546;13.230;2022-08-20T10:37:50;25.40;99.90
51035;DHT22;37062;52.546;13.230;2022-08-20T10:40:17;25.40;99.90
51035;DHT22;37062;52.546;13.230;2022-08-20T10:42:46;25.50;99.90
51035;DHT22;37062;52.546;13.230;2022-08-20T10:45:15;25.60;99.90
51035;DHT22;37062;52.546;13.230;2022-08-20T10:47:43;25.70;99.90
51035;DHT22;37062;52.546;13.230;2022-08-20T10:50:13;25.70;99.90
51035;DHT22;37062;52.546;13.230;2022-08-20T10:52:41;25.80;99.90
51035;DHT22;37062;52.546;13.230;2022-08-20T10:55:10;25.90;99.90
51035;DHT22;37062;52.546;13.230;2022-08-20T10:57:39;26.00;99.90
51035;DHT22;37062;52.546;13.230;2022-08-20T11:00:10;26.20;99.90
51035;DHT22;37062;52.546;13.230;2022-08-20T11:02:38;26.30;99.90
51035;DHT22;37062;52.546;13.230;2022-08-20T11:05:06;26.10;99.90
51035;DHT22;37062;52.546;13.230;2022-08-20T11:07:35;26.20;99.90
51035;DHT22;37062;52.546;13.230;2022-08-20T11:10:04;26.30;99.90
51035;DHT22;37062;52.546;13.230;2022-08-20T11:12:32;26.30;99.90
51035;DHT22;37062;52.546;13.230;2022-08-20T11:15:00;26.20;99.90
51035;DHT22;37062;52.546;13.230;2022-08-20T11:17:30;26.10;99.90
51035;DHT22;37062;52.546;13.230;2022-08-20T11:19:59;26.00;99.90
51035;DHT22;37062;52.546;13.230;2022-08-20T11:22:36;26.00;99.90
51035;DHT22;37062;52.546;13.230;2022-08-20T11:25:04;26.00;99.90
51035;DHT22;37062;52.546;13.230;2022-08-20T11:27:34;26.00;99.90
51035;DHT22;37062;52.546;13.230;2022-08-20T11:30:04;26.00;99.90
51035;DHT22;37062;52.546;13.230;2022-08-20T11:32:34;26.00;99.90
51035;DHT22;37062;52.546;13.230;2022-08-20T11:35:02;26.10;99.90
51035;DHT22;37062;52.546;13.230;2022-08-20T11:37:30;25.90;99.90
51035;DHT22;37062;52.546;13.230;2022-08-20T11:39:58;25.80;99.90
51035;DHT22;37062;52.546;13.230;2022-08-20T11:42:26;25.60;99.90
51035;DHT22;37062;52.546;13.230;2022-08-20T11:44:53;25.50;99.90
51035;DHT22;37062;52.546;13.230;2022-08-20T11:47:24;25.40;99.90
51035;DHT22;37062;52.546;13.230;2022-08-20T11:49:57;25.30;99.90
51035;DHT22;37062;52.546;13.230;2022-08-20T11:52:26;25.20;99.90
51035;DHT22;37062;52.546;13.230;2022-08-20T11:54:54;25.10;99.90
51035;DHT22;37062;52.546;13.230;2022-08-20T11:57:24;25.10;99.90
51035;DHT22;37062;52.546;13.230;2022-08-20T11:59:53;25.10;99.90
51035;DHT22;37062;52.546;13.230;2022-08-20T12:02:21;25.10;99.90
51035;DHT22;37062;52.546;13.230;2022-08-20T12:04:48;25.10;99.90
51035;DHT22;37062;52.546;13.230;2022-08-20T12:07:20;25.10;99.90
51035;DHT22;37062;52.546;13.230;2022-08-20T12:09:48;25.10;99.90
51035;DHT22;37062;52.546;13.230;2022-08-20T12:12:17;25.10;99.90
51035;DHT22;37062;52.546;13.230;2022-08-20T12:14:45;25.00;99.90
51035;DHT22;37062;52.546;13.230;2022-08-20T12:17:15;25.00;99.90
51035;DHT22;37062;52.546;13.230;2022-08-20T12:19:45;25.00;99.90
51035;DHT22;37062;52.546;13.230;2022-08-20T12:22:12;25.00;99.90
51035;DHT22;37062;52.546;13.230;2022-08-20T12:24:41;25.00;99.90
51035;DHT22;37062;52.546;13.230;2022-08-20T12:27:09;25.00;99.90
51035;DHT22;37062;52.546;13.230;2022-08-20T12:29:37;25.00;99.90
51035;DHT22;37062;52.546;13.230;2022-08-20T12:32:06;25.10;99.90
51035;DHT22;37062;52.546;13.230;2022-08-20T12:34:34;25.10;99.90
51035;DHT22;37062;52.546;13.230;2022-08-20T12:37:04;25.10;99.90
51035;DHT22;37062;52.546;13.230;2022-08-20T12:39:33;25.10;99.90
51035;DHT22;37062;52.546;13.230;2022-08-20T12:42:03;25.10;99.90
51035;DHT22;37062;52.546;13.230;2022-08-20T12:44:31;25.10;99.90
51035;DHT22;37062;52.546;13.230;2022-08-20T12:47:07;25.00;99.90
51035;DHT22;37062;52.546;13.230;2022-08-20T12:49:36;24.90;99.90
51035;DHT22;37062;52.546;13.230;2022-08-20T12:52:04;24.80;99.90
51035;DHT22;37062;52.546;13.230;2022-08-20T12:54:32;24.70;99.90
51035;DHT22;37062;52.546;13.230;2022-08-20T12:56:59;24.70;99.90
51035;DHT22;37062;52.546;13.230;2022-08-20T12:59:29;24.60;99.90
51035;DHT22;37062;52.546;13.230;2022-08-20T13:01:57;24.60;99.90
51035;DHT22;37062;52.546;13.230;2022-08-20T13:04:24;24.60;99.90
51035;DHT22;37062;52.546;13.230;2022-08-20T13:06:52;24.60;99.90
51035;DHT22;37062;52.546;13.230;2022-08-20T13:09:19;24.50;99.90
51035;DHT22;37062;52.546;13.230;2022-08-20T13:11:47;24.40;99.90
51035;DHT22;37062;52.546;13.230;2022-08-20T13:14:14;24.40;99.90
51035;DHT22;37062;52.546;13.230;2022-08-20T13:16:43;24.40;99.90
51035;DHT22;37062;52.546;13.230;2022-08-20T13:19:10;24.30;99.90
51035;DHT22;37062;52.546;13.230;2022-08-20T13:21:38;24.20;99.90
51035;DHT22;37062;52.546;13.230;2022-08-20T13:24:05;24.10;99.90
51035;DHT22;37062;52.546;13.230;2022-08-20T13:26:34;24.00;99.90
51035;DHT22;37062;52.546;13.230;2022-08-20T13:29:02;23.90;99.90
51035;DHT22;37062;52.546;13.230;2022-08-20T13:31:29;23.90;99.90
51035;DHT22;37062;52.546;13.230;2022-08-20T13:33:58;23.90;99.90
51035;DHT22;37062;52.546;13.230;2022-08-20T13:36:25;23.90;99.90
51035;DHT22;37062;52.546;13.230;2022-08-20T13:38:53;23.80;99.90
51035;DHT22;37062;52.546;13.230;2022-08-20T13:41:20;23.80;99.90
51035;DHT22;37062;52.546;13.230;2022-08-20T13:43:48;23.70;99.90
51035;DHT22;37062;52.546;13.230;2022-08-20T13:46:15;23.60;99.90
51035;DHT22;37062;52.546;13.230;2022-08-20T13:48:43;23.60;99.90
51035;DHT22;37062;52.546;13.230;2022-08-20T13:51:11;23.60;99.90
51035;DHT22;37062;52.546;13.230;2022-08-20T13:53:39;23.60;99.90
51035;DHT22;37062;52.546;13.230;2022-08-20T13:56:06;23.60;99.90
51035;DHT22;37062;52.546;13.230;2022-08-20T13:58:34;23.60;99.90
51035;DHT22;37062;52.546;13.230;2022-08-20T14:01:01;23.60;99.90
51035;DHT22;37062;52.546;13.230;2022-08-20T14:03:32;23.60;99.90
51035;DHT22;37062;52.546;13.230;2022-08-20T14:06:00;23.50;99.90
51035;DHT22;37062;52.546;13.230;2022-08-20T14:08:29;23.50;99.90
51035;DHT22;37062;52.546;13.230;2022-08-20T14:10:57;23.50;99.90
51035;DHT22;37062;52.546;13.230;2022-08-20T14:13:25;23.40;99.90
51035;DHT22;37062;52.546;13.230;2022-08-20T14:15:53;23.40;99.90
51035;DHT22;37062;52.546;13.230;2022-08-20T14:18:21;23.40;99.90
51035;DHT22;37062;52.546;13.230;2022-08-20T14:20:49;23.40;99.90
51035;DHT22;37062;52.546;13.230;2022-08-20T14:23:17;23.40;99.90
51035;DHT22;37062;52.546;13.230;2022-08-20T14:25:47;23.50;99.90
51035;DHT22;37062;52.546;13.230;2022-08-20T14:28:18;23.50;99.90
51035;DHT22;37062;52.546;13.230;2022-08-20T14:30:47;23.50;99.90
51035;DHT22;37062;52.546;13.230;2022-08-20T14:33:15;23.50;99.90
51035;DHT22;37062;52.546;13.230;2022-08-20T14:35:42;23.60;99.90
51035;DHT22;37062;52.546;13.230;2022-08-20T14:38:10;23.60;99.90
51035;DHT22;37062;52.546;13.230;2022-08-20T14:40:37;23.60;99.90
51035;DHT22;37062;52.546;13.230;2022-08-20T14:43:06;23.60;99.90
51035;DHT22;37062;52.546;13.230;2022-08-20T14:45:33;23.60;99.90
51035;DHT22;37062;52.546;13.230;2022-08-20T14:48:06;23.70;99.90
51035;DHT22;37062;52.546;13.230;2022-08-20T14:50:36;23.80;99.90
51035;DHT22;37062;52.546;13.230;2022-08-20T14:53:04;23.80;99.90
51035;DHT22;37062;52.546;13.230;2022-08-20T14:55:35;23.80;99.90
51035;DHT22;37062;52.546;13.230;2022-08-20T14:58:07;23.90;99.90
51035;DHT22;37062;52.546;13.230;2022-08-20T15:00:35;23.90;99.90
51035;DHT22;37062;52.546;13.230;2022-08-20T15:03:03;23.90;99.90
51035;DHT22;37062;52.546;13.230;2022-08-20T15:05:30;23.90;99.90
51035;DHT22;37062;52.546;13.230;2022-08-20T15:07:58;23.90;99.90
51035;DHT22;37062;52.546;13.230;2022-08-20T15:10:27;23.80;99.90
51035;DHT22;37062;52.546;13.230;2022-08-20T15:12:55;23.90;99.90
51035;DHT22;37062;52.546;13.230;2022-08-20T15:15:24;23.90;99.90
51035;DHT22;37062;52.546;13.230;2022-08-20T15:17:54;23.90;99.90
51035;DHT22;37062;52.546;13.230;2022-08-20T15:20:25;23.90;99.90
51035;DHT22;37062;52.546;13.230;2022-08-20T15:22:54;23.80;99.90
51035;DHT22;37062;52.546;13.230;2022-08-20T15:25:23;23.80;99.90
51035;DHT22;37062;52.546;13.230;2022-08-20T15:27:54;23.80;99.90